HVN766 YBAS-VVTS
Flight info
| Callsign | HVN766 |
|---|---|
| Flight time | N/A |
| Altitude | 38000 |
| Route | DIGLA A461 DN M768 AKMON/K0896F380 M768 ELSAS ELSAS5C |
| Aircraft | B772/H-SDE2E3FGHIJ5LORVWXY/LB1D1 |
Departure
| Time | 2026-04-26 05:07 |
|---|---|
| Airport | Alice Springs Airport (YBAS) |
Arrival
| Time | N/A |
|---|---|
| Airport | Tan Son Nhat International Airport (VVTS) |
| Time | Latitude | Longitude | Altitude | Speed | Heading |
|---|---|---|---|---|---|
| 2026-04-26 04:49 | -23.80311 | 133.90174 | 1802 ft | 0 kts | 62° |
| 2026-04-26 04:58 | -23.80311 | 133.90173 | 1803 ft | 0 kts | 63° |
| 2026-04-26 04:59 | -23.80316 | 133.90162 | 1803 ft | 2 kts | 52° |
| 2026-04-26 04:59 | -23.80325 | 133.90152 | 1803 ft | 2 kts | 27° |
| 2026-04-26 04:59 | -23.80333 | 133.90147 | 1803 ft | 2 kts | 355° |
| 2026-04-26 04:59 | -23.80342 | 133.90148 | 1803 ft | 2 kts | 320° |
| 2026-04-26 05:00 | -23.80351 | 133.90159 | 1803 ft | 2 kts | 300° |
| 2026-04-26 05:00 | -23.80356 | 133.90169 | 1803 ft | 0 kts | 300° |
| 2026-04-26 05:03 | -23.80354 | 133.90164 | 1803 ft | 4 kts | 300° |
| 2026-04-26 05:03 | -23.80319 | 133.90099 | 1803 ft | 14 kts | 300° |
| 2026-04-26 05:03 | -23.80298 | 133.90038 | 1803 ft | 7 kts | 246° |
| 2026-04-26 05:03 | -23.80328 | 133.90002 | 1803 ft | 5 kts | 217° |
| 2026-04-26 05:04 | -23.80356 | 133.89982 | 1803 ft | 5 kts | 211° |
| 2026-04-26 05:04 | -23.80414 | 133.89929 | 1803 ft | 6 kts | 255° |
| 2026-04-26 05:04 | -23.80400 | 133.89890 | 1803 ft | 12 kts | 298° |
| 2026-04-26 05:04 | -23.80339 | 133.89775 | 1803 ft | 24 kts | 300° |
| 2026-04-26 05:05 | -23.80237 | 133.89585 | 1803 ft | 29 kts | 300° |
| 2026-04-26 05:05 | -23.80165 | 133.89433 | 1803 ft | 15 kts | 281° |
| 2026-04-26 05:05 | -23.80147 | 133.89353 | 1803 ft | 6 kts | 315° |
| 2026-04-26 05:05 | -23.80112 | 133.89359 | 1803 ft | 5 kts | 54° |
| 2026-04-26 05:06 | -23.80117 | 133.89395 | 1803 ft | 5 kts | 136° |
| 2026-04-26 05:06 | -23.80142 | 133.89418 | 1803 ft | 5 kts | 129° |
| 2026-04-26 05:06 | -23.80244 | 133.89596 | 1803 ft | 58 kts | 121° |
| 2026-04-26 05:06 | -23.80559 | 133.90185 | 1803 ft | 121 kts | 120° |
| 2026-04-26 05:07 | -23.81084 | 133.91163 | 1827 ft | 174 kts | 120° |
| 2026-04-26 05:07 | -23.81716 | 133.92347 | 2526 ft | 178 kts | 120° |
| 2026-04-26 05:07 | -23.82023 | 133.93644 | 3365 ft | 180 kts | 88° |
| 2026-04-26 05:07 | -23.81756 | 133.94502 | 3819 ft | 181 kts | 63° |
| 2026-04-26 05:08 | -23.80518 | 133.95617 | 4259 ft | 191 kts | 25° |
| 2026-04-26 05:08 | -23.79149 | 133.95633 | 4426 ft | 205 kts | 349° |
| 2026-04-26 05:08 | -23.77831 | 133.94979 | 4758 ft | 212 kts | 332° |
| 2026-04-26 05:08 | -23.76578 | 133.94019 | 4957 ft | 229 kts | 324° |
| 2026-04-26 05:09 | -23.75263 | 133.92891 | 5081 ft | 250 kts | 322° |
| 2026-04-26 05:09 | -23.74345 | 133.92073 | 5203 ft | 263 kts | 321° |
| 2026-04-26 05:09 | -23.72400 | 133.90319 | 5771 ft | 276 kts | 321° |
| 2026-04-26 05:09 | -23.71416 | 133.89430 | 6135 ft | 280 kts | 321° |
| 2026-04-26 05:10 | -23.69403 | 133.87614 | 6915 ft | 285 kts | 321° |
| 2026-04-26 05:10 | -23.68362 | 133.86675 | 7329 ft | 288 kts | 321° |
| 2026-04-26 05:10 | -23.66827 | 133.85289 | 7921 ft | 292 kts | 321° |
| 2026-04-26 05:10 | -23.65212 | 133.83943 | 8520 ft | 294 kts | 327° |
| 2026-04-26 05:11 | -23.63369 | 133.82927 | 9141 ft | 296 kts | 339° |
| 2026-04-26 05:11 | -23.61421 | 133.82210 | 9741 ft | 299 kts | 343° |
| 2026-04-26 05:11 | -23.59397 | 133.81577 | 10264 ft | 307 kts | 345° |
| 2026-04-26 05:11 | -23.57279 | 133.80975 | 10579 ft | 324 kts | 346° |
| 2026-04-26 05:12 | -23.55015 | 133.80351 | 10937 ft | 343 kts | 346° |
| 2026-04-26 05:12 | -23.52673 | 133.79703 | 11245 ft | 361 kts | 346° |
| 2026-04-26 05:12 | -23.50185 | 133.79019 | 11732 ft | 376 kts | 346° |
| 2026-04-26 05:12 | -23.47604 | 133.78306 | 12400 ft | 387 kts | 346° |
| 2026-04-26 05:13 | -23.44977 | 133.77582 | 13178 ft | 394 kts | 346° |
| 2026-04-26 05:13 | -23.42287 | 133.76840 | 14004 ft | 400 kts | 346° |
| 2026-04-26 05:13 | -23.39560 | 133.76088 | 14798 ft | 403 kts | 345° |
| 2026-04-26 05:13 | -23.36823 | 133.75332 | 15586 ft | 409 kts | 345° |
| 2026-04-26 05:14 | -23.34073 | 133.74573 | 16262 ft | 416 kts | 345° |
| 2026-04-26 05:14 | -23.31242 | 133.73792 | 16957 ft | 420 kts | 345° |
| 2026-04-26 05:14 | -23.28382 | 133.72998 | 17700 ft | 423 kts | 345° |
| 2026-04-26 05:14 | -23.26401 | 133.72448 | 18119 ft | 428 kts | 345° |
| 2026-04-26 05:15 | -23.23433 | 133.71626 | 18804 ft | 431 kts | 345° |
| 2026-04-26 05:15 | -23.20538 | 133.70825 | 19469 ft | 435 kts | 344° |
| 2026-04-26 05:15 | -23.17568 | 133.70004 | 20110 ft | 439 kts | 344° |
| 2026-04-26 05:15 | -23.14598 | 133.69184 | 20696 ft | 443 kts | 344° |
| 2026-04-26 05:16 | -23.11588 | 133.68354 | 21280 ft | 447 kts | 344° |
| 2026-04-26 05:16 | -23.08564 | 133.67520 | 21894 ft | 449 kts | 344° |
| 2026-04-26 05:16 | -23.05518 | 133.66681 | 22448 ft | 453 kts | 343° |
| 2026-04-26 05:16 | -23.02474 | 133.65842 | 22956 ft | 458 kts | 343° |
| 2026-04-26 05:17 | -22.99372 | 133.64989 | 23573 ft | 460 kts | 343° |
| 2026-04-26 05:17 | -22.96270 | 133.64135 | 24122 ft | 463 kts | 343° |
| 2026-04-26 05:18 | -22.95443 | 133.63908 | 24271 ft | 464 kts | 343° |
| 2026-04-26 05:18 | -22.93056 | 133.63251 | 24652 ft | 467 kts | 343° |
| 2026-04-26 05:18 | -22.89889 | 133.62381 | 25112 ft | 471 kts | 343° |
| 2026-04-26 05:18 | -22.86696 | 133.61504 | 25572 ft | 475 kts | 342° |
| 2026-04-26 05:19 | -22.83470 | 133.60618 | 26054 ft | 478 kts | 342° |
| 2026-04-26 05:19 | -22.80226 | 133.59728 | 26497 ft | 481 kts | 342° |
| 2026-04-26 05:19 | -22.77009 | 133.58845 | 26931 ft | 484 kts | 341° |
| 2026-04-26 05:19 | -22.73726 | 133.57945 | 27363 ft | 487 kts | 341° |
| 2026-04-26 05:20 | -22.70417 | 133.57039 | 27741 ft | 490 kts | 341° |
| 2026-04-26 05:20 | -22.67093 | 133.56128 | 28125 ft | 493 kts | 341° |
| 2026-04-26 05:20 | -22.63764 | 133.55217 | 28515 ft | 496 kts | 340° |
| 2026-04-26 05:20 | -22.60403 | 133.54297 | 28854 ft | 499 kts | 340° |
| 2026-04-26 05:21 | -22.57033 | 133.53376 | 29192 ft | 501 kts | 340° |
| 2026-04-26 05:21 | -22.53635 | 133.52447 | 29525 ft | 504 kts | 340° |
| 2026-04-26 05:21 | -22.50217 | 133.51513 | 29839 ft | 507 kts | 339° |
| 2026-04-26 05:21 | -22.46789 | 133.50577 | 30123 ft | 509 kts | 339° |
| 2026-04-26 05:22 | -22.43345 | 133.49637 | 30427 ft | 511 kts | 339° |
| 2026-04-26 05:22 | -22.39892 | 133.48695 | 30696 ft | 513 kts | 339° |
| 2026-04-26 05:22 | -22.36426 | 133.47750 | 30933 ft | 515 kts | 339° |
| 2026-04-26 05:22 | -22.32976 | 133.46810 | 31175 ft | 517 kts | 339° |
| 2026-04-26 05:23 | -22.29468 | 133.45855 | 31478 ft | 517 kts | 339° |
| 2026-04-26 05:23 | -22.25968 | 133.44902 | 31814 ft | 516 kts | 338° |
| 2026-04-26 05:23 | -22.22486 | 133.43954 | 32106 ft | 516 kts | 338° |
| 2026-04-26 05:23 | -22.18999 | 133.43006 | 32413 ft | 516 kts | 338° |
| 2026-04-26 05:24 | -22.15522 | 133.42061 | 32726 ft | 515 kts | 338° |
| 2026-04-26 05:24 | -22.12047 | 133.41117 | 33039 ft | 515 kts | 338° |
| 2026-04-26 05:24 | -22.08571 | 133.40173 | 33345 ft | 514 kts | 338° |
| 2026-04-26 05:24 | -22.05144 | 133.39243 | 33662 ft | 513 kts | 338° |
| 2026-04-26 05:25 | -22.01687 | 133.38305 | 33967 ft | 513 kts | 338° |
| 2026-04-26 05:25 | -21.98225 | 133.37367 | 34294 ft | 511 kts | 338° |
| 2026-04-26 05:25 | -21.94786 | 133.36435 | 34725 ft | 508 kts | 338° |
| 2026-04-26 05:25 | -21.91362 | 133.35507 | 35054 ft | 507 kts | 337° |
| 2026-04-26 05:26 | -21.87939 | 133.34581 | 35390 ft | 505 kts | 337° |
| 2026-04-26 05:26 | -21.84540 | 133.33661 | 35712 ft | 503 kts | 337° |
| 2026-04-26 05:26 | -21.81162 | 133.32747 | 36036 ft | 501 kts | 336° |
| 2026-04-26 05:26 | -21.77775 | 133.31832 | 36358 ft | 499 kts | 336° |
| 2026-04-26 05:27 | -21.74423 | 133.30926 | 36688 ft | 497 kts | 336° |
| 2026-04-26 05:27 | -21.71063 | 133.30019 | 36933 ft | 496 kts | 336° |
| 2026-04-26 05:27 | -21.67720 | 133.29116 | 37208 ft | 495 kts | 336° |
| 2026-04-26 05:27 | -21.64434 | 133.28230 | 37422 ft | 495 kts | 336° |
| 2026-04-26 05:28 | -21.61057 | 133.27318 | 37748 ft | 492 kts | 336° |
| 2026-04-26 05:28 | -21.57774 | 133.26429 | 37936 ft | 492 kts | 336° |
| 2026-04-26 05:28 | -21.54448 | 133.25533 | 38101 ft | 491 kts | 335° |
| 2026-04-26 05:28 | -21.51138 | 133.24642 | 38100 ft | 492 kts | 336° |
| 2026-04-26 05:29 | -21.44493 | 133.22855 | 38096 ft | 491 kts | 336° |
| 2026-04-26 05:29 | -21.37862 | 133.21074 | 38095 ft | 490 kts | 336° |
| 2026-04-26 05:30 | -21.31283 | 133.19308 | 38095 ft | 490 kts | 336° |
| 2026-04-26 05:30 | -21.24671 | 133.17521 | 38094 ft | 490 kts | 336° |
| 2026-04-26 05:31 | -21.18042 | 133.15728 | 38092 ft | 490 kts | 336° |
| 2026-04-26 05:31 | -21.11460 | 133.13950 | 38091 ft | 490 kts | 336° |
| 2026-04-26 05:32 | -21.04832 | 133.12161 | 38090 ft | 490 kts | 336° |
| 2026-04-26 05:32 | -20.98197 | 133.10371 | 38089 ft | 490 kts | 336° |
| 2026-04-26 05:33 | -20.91582 | 133.08581 | 38088 ft | 490 kts | 336° |
| 2026-04-26 05:33 | -20.85004 | 133.06804 | 38086 ft | 490 kts | 336° |
| 2026-04-26 05:34 | -20.78380 | 133.05018 | 38085 ft | 490 kts | 336° |
| 2026-04-26 05:34 | -20.71746 | 133.03233 | 38075 ft | 491 kts | 336° |
| 2026-04-26 05:35 | -20.65158 | 133.01461 | 38074 ft | 491 kts | 336° |
| 2026-04-26 05:35 | -20.58528 | 132.99680 | 38071 ft | 491 kts | 336° |
| 2026-04-26 05:36 | -20.51931 | 132.97909 | 38069 ft | 491 kts | 336° |
| 2026-04-26 05:36 | -20.45288 | 132.96128 | 38067 ft | 491 kts | 336° |
| 2026-04-26 05:37 | -20.38662 | 132.94353 | 38065 ft | 491 kts | 337° |
| 2026-04-26 05:37 | -20.32065 | 132.92587 | 38063 ft | 491 kts | 337° |
| 2026-04-26 05:38 | -20.25433 | 132.90813 | 38061 ft | 491 kts | 337° |
| 2026-04-26 05:38 | -20.18805 | 132.89042 | 38059 ft | 491 kts | 337° |
| 2026-04-26 05:39 | -20.12175 | 132.87272 | 38056 ft | 491 kts | 337° |
| 2026-04-26 05:39 | -20.05542 | 132.85503 | 38054 ft | 491 kts | 337° |
| 2026-04-26 05:40 | -19.98945 | 132.83744 | 38052 ft | 491 kts | 337° |
| 2026-04-26 05:40 | -19.92320 | 132.81980 | 38050 ft | 490 kts | 338° |
| 2026-04-26 05:41 | -19.85702 | 132.80220 | 38048 ft | 489 kts | 338° |
| 2026-04-26 05:41 | -19.79134 | 132.78474 | 38045 ft | 489 kts | 338° |
| 2026-04-26 05:42 | -19.72522 | 132.76717 | 38043 ft | 490 kts | 338° |
| 2026-04-26 05:42 | -19.65896 | 132.74959 | 38041 ft | 490 kts | 338° |
| 2026-04-26 05:43 | -19.59283 | 132.73206 | 38038 ft | 490 kts | 338° |
| 2026-04-26 05:43 | -19.52663 | 132.71452 | 38035 ft | 490 kts | 338° |
| 2026-04-26 05:44 | -19.46052 | 132.69702 | 38033 ft | 490 kts | 338° |
| 2026-04-26 05:44 | -19.39470 | 132.67961 | 38031 ft | 490 kts | 338° |
| 2026-04-26 05:45 | -19.32845 | 132.66210 | 38029 ft | 490 kts | 338° |
| 2026-04-26 05:45 | -19.26227 | 132.64463 | 38026 ft | 490 kts | 338° |
| 2026-04-26 05:46 | -19.19602 | 132.62715 | 38024 ft | 490 kts | 338° |
| 2026-04-26 05:46 | -19.12988 | 132.60971 | 38021 ft | 489 kts | 338° |
| 2026-04-26 05:47 | -19.06424 | 132.59238 | 38019 ft | 489 kts | 338° |
| 2026-04-26 05:47 | -18.99822 | 132.57501 | 38017 ft | 489 kts | 338° |
| 2026-04-26 05:48 | -18.93222 | 132.55767 | 38015 ft | 488 kts | 339° |
| 2026-04-26 05:48 | -18.86615 | 132.54032 | 38012 ft | 488 kts | 339° |
| 2026-04-26 05:49 | -18.76736 | 132.51439 | 38009 ft | 489 kts | 339° |
| 2026-04-26 05:50 | -18.70177 | 132.49723 | 38006 ft | 488 kts | 339° |
| 2026-04-26 05:50 | -18.63560 | 132.47992 | 38004 ft | 488 kts | 339° |
| 2026-04-26 05:51 | -18.56960 | 132.46267 | 38002 ft | 487 kts | 339° |
| 2026-04-26 05:51 | -18.50374 | 132.44546 | 37999 ft | 487 kts | 339° |
| 2026-04-26 05:52 | -18.43837 | 132.42837 | 37998 ft | 487 kts | 339° |
| 2026-04-26 05:52 | -18.37254 | 132.41114 | 37996 ft | 487 kts | 339° |
| 2026-04-26 05:53 | -18.30669 | 132.39394 | 37994 ft | 487 kts | 339° |
| 2026-04-26 05:53 | -18.24074 | 132.37673 | 37991 ft | 487 kts | 339° |
| 2026-04-26 05:54 | -18.17529 | 132.35968 | 37980 ft | 487 kts | 339° |
| 2026-04-26 05:54 | -18.10954 | 132.34256 | 37968 ft | 486 kts | 339° |
| 2026-04-26 05:55 | -18.04378 | 132.32546 | 37966 ft | 486 kts | 339° |
| 2026-04-26 05:55 | -17.98915 | 132.31126 | 37965 ft | 486 kts | 340° |
| 2026-04-26 05:56 | -17.92331 | 132.29415 | 37963 ft | 487 kts | 340° |
| 2026-04-26 05:56 | -17.84670 | 132.27427 | 37962 ft | 487 kts | 340° |
| 2026-04-26 05:57 | -17.78093 | 132.25721 | 37951 ft | 487 kts | 340° |
| 2026-04-26 05:57 | -17.72632 | 132.24305 | 37946 ft | 486 kts | 340° |
| 2026-04-26 05:58 | -17.66050 | 132.22601 | 37945 ft | 486 kts | 340° |
| 2026-04-26 05:58 | -17.59514 | 132.20909 | 37944 ft | 486 kts | 340° |
| 2026-04-26 05:59 | -17.52942 | 132.19210 | 37943 ft | 487 kts | 340° |
| 2026-04-26 05:59 | -17.46341 | 132.17504 | 37942 ft | 487 kts | 340° |
| 2026-04-26 06:00 | -17.39756 | 132.15804 | 37941 ft | 487 kts | 340° |
| 2026-04-26 06:00 | -17.33174 | 132.14105 | 37941 ft | 487 kts | 340° |
| 2026-04-26 06:01 | -17.26589 | 132.12403 | 37940 ft | 487 kts | 340° |
| 2026-04-26 06:01 | -17.20030 | 132.10714 | 37939 ft | 487 kts | 340° |
| 2026-04-26 06:02 | -17.13452 | 132.09021 | 37938 ft | 487 kts | 340° |
| 2026-04-26 06:02 | -17.06849 | 132.07324 | 37938 ft | 487 kts | 340° |
| 2026-04-26 06:03 | -17.00269 | 132.05632 | 37937 ft | 487 kts | 340° |
| 2026-04-26 06:03 | -16.93681 | 132.03942 | 37937 ft | 487 kts | 340° |
| 2026-04-26 06:04 | -16.87127 | 132.02263 | 37937 ft | 488 kts | 340° |
| 2026-04-26 06:04 | -16.80531 | 132.00574 | 37936 ft | 488 kts | 341° |
| 2026-04-26 06:05 | -16.73929 | 131.98884 | 37936 ft | 487 kts | 341° |
| 2026-04-26 06:05 | -16.67344 | 131.97199 | 37935 ft | 487 kts | 341° |
| 2026-04-26 06:06 | -16.60743 | 131.95505 | 37935 ft | 487 kts | 341° |
| 2026-04-26 06:06 | -16.54203 | 131.93830 | 37935 ft | 487 kts | 341° |
| 2026-04-26 06:07 | -16.47616 | 131.92146 | 37934 ft | 487 kts | 341° |
| 2026-04-26 06:07 | -16.41018 | 131.90460 | 37934 ft | 487 kts | 341° |
| 2026-04-26 06:08 | -16.34430 | 131.88779 | 37934 ft | 487 kts | 341° |
| 2026-04-26 06:08 | -16.27834 | 131.87097 | 37934 ft | 487 kts | 341° |
| 2026-04-26 06:09 | -16.21238 | 131.85415 | 37933 ft | 487 kts | 341° |
| 2026-04-26 06:09 | -16.14647 | 131.83737 | 37933 ft | 487 kts | 341° |
| 2026-04-26 06:10 | -16.08095 | 131.82069 | 37933 ft | 487 kts | 341° |
| 2026-04-26 06:10 | -16.01501 | 131.80392 | 37933 ft | 487 kts | 341° |
| 2026-04-26 06:11 | -15.94902 | 131.78715 | 37933 ft | 487 kts | 341° |
| 2026-04-26 06:11 | -15.88346 | 131.77050 | 37933 ft | 487 kts | 341° |
| 2026-04-26 06:12 | -15.81769 | 131.75380 | 37933 ft | 487 kts | 341° |
| 2026-04-26 06:12 | -15.75166 | 131.73705 | 37928 ft | 487 kts | 341° |
| 2026-04-26 06:13 | -15.68577 | 131.72035 | 37927 ft | 487 kts | 341° |
| 2026-04-26 06:13 | -15.61985 | 131.70365 | 37927 ft | 487 kts | 341° |
| 2026-04-26 06:14 | -15.55414 | 131.68702 | 37927 ft | 487 kts | 341° |
| 2026-04-26 06:14 | -15.48834 | 131.67037 | 37927 ft | 487 kts | 341° |
| 2026-04-26 06:15 | -15.42241 | 131.65370 | 37928 ft | 487 kts | 342° |
| 2026-04-26 06:15 | -15.35658 | 131.63707 | 37928 ft | 487 kts | 342° |
| 2026-04-26 06:16 | -15.29079 | 131.62046 | 37928 ft | 487 kts | 342° |
| 2026-04-26 06:16 | -15.22490 | 131.60383 | 37928 ft | 487 kts | 342° |
| 2026-04-26 06:17 | -15.15909 | 131.58723 | 37928 ft | 487 kts | 342° |
| 2026-04-26 06:17 | -15.09328 | 131.57065 | 37906 ft | 487 kts | 342° |
| 2026-04-26 06:18 | -15.02790 | 131.55418 | 37904 ft | 487 kts | 343° |
| 2026-04-26 06:18 | -14.96200 | 131.53760 | 37904 ft | 487 kts | 343° |
| 2026-04-26 06:19 | -14.89584 | 131.52096 | 37904 ft | 487 kts | 343° |
| 2026-04-26 06:19 | -14.83059 | 131.50455 | 37904 ft | 486 kts | 343° |
| 2026-04-26 06:20 | -14.76476 | 131.48802 | 37903 ft | 486 kts | 343° |
| 2026-04-26 06:20 | -14.69910 | 131.47153 | 37904 ft | 486 kts | 343° |
| 2026-04-26 06:21 | -14.63341 | 131.45505 | 37904 ft | 486 kts | 343° |
| 2026-04-26 06:21 | -14.56767 | 131.43857 | 37903 ft | 485 kts | 343° |
| 2026-04-26 06:22 | -14.50204 | 131.42212 | 37903 ft | 485 kts | 343° |
| 2026-04-26 06:22 | -14.43680 | 131.40578 | 37903 ft | 485 kts | 343° |
| 2026-04-26 06:23 | -14.37108 | 131.38933 | 37902 ft | 485 kts | 343° |
| 2026-04-26 06:23 | -14.30552 | 131.37293 | 37901 ft | 485 kts | 343° |
| 2026-04-26 06:24 | -14.23993 | 131.35653 | 37901 ft | 485 kts | 343° |
| 2026-04-26 06:24 | -14.17433 | 131.34015 | 37900 ft | 485 kts | 343° |
| 2026-04-26 06:25 | -14.10909 | 131.32386 | 37899 ft | 485 kts | 343° |
| 2026-04-26 06:25 | -14.04333 | 131.30744 | 37899 ft | 485 kts | 343° |
| 2026-04-26 06:26 | -13.97769 | 131.29107 | 37898 ft | 485 kts | 343° |
| 2026-04-26 06:26 | -13.91211 | 131.27470 | 37897 ft | 484 kts | 343° |
| 2026-04-26 06:27 | -13.84701 | 131.25848 | 37896 ft | 484 kts | 343° |
| 2026-04-26 06:27 | -13.78160 | 131.24220 | 37895 ft | 484 kts | 344° |
| 2026-04-26 06:28 | -13.71607 | 131.22590 | 37894 ft | 484 kts | 344° |
| 2026-04-26 06:28 | -13.65056 | 131.20962 | 37892 ft | 484 kts | 344° |
| 2026-04-26 06:29 | -13.58491 | 131.19332 | 37891 ft | 484 kts | 344° |
| 2026-04-26 06:29 | -13.51942 | 131.17710 | 37889 ft | 484 kts | 344° |
| 2026-04-26 06:30 | -13.45390 | 131.16087 | 37887 ft | 484 kts | 344° |
| 2026-04-26 06:30 | -13.38881 | 131.14476 | 37887 ft | 484 kts | 344° |
| 2026-04-26 06:31 | -13.32316 | 131.12851 | 37885 ft | 484 kts | 344° |
| 2026-04-26 06:31 | -13.25762 | 131.11227 | 37884 ft | 484 kts | 344° |
| 2026-04-26 06:32 | -13.19206 | 131.09603 | 37883 ft | 484 kts | 344° |
| 2026-04-26 06:32 | -13.12657 | 131.07983 | 37882 ft | 484 kts | 344° |
| 2026-04-26 06:33 | -13.06109 | 131.06365 | 37881 ft | 484 kts | 344° |
| 2026-04-26 06:33 | -12.99589 | 131.04755 | 37879 ft | 484 kts | 345° |
| 2026-04-26 06:34 | -12.93048 | 131.03140 | 37879 ft | 484 kts | 345° |
| 2026-04-26 06:34 | -12.86503 | 131.01525 | 37878 ft | 484 kts | 345° |
| 2026-04-26 06:35 | -12.79953 | 130.99910 | 37877 ft | 483 kts | 345° |
| 2026-04-26 06:35 | -12.73405 | 130.98296 | 37877 ft | 483 kts | 345° |
| 2026-04-26 06:36 | -12.66895 | 130.96690 | 37876 ft | 483 kts | 345° |
| 2026-04-26 06:36 | -12.60353 | 130.95080 | 37876 ft | 483 kts | 345° |
| 2026-04-26 06:37 | -12.53806 | 130.93469 | 37876 ft | 483 kts | 345° |
| 2026-04-26 06:37 | -12.47316 | 130.91874 | 37876 ft | 482 kts | 345° |
| 2026-04-26 06:38 | -12.41091 | 130.89481 | 37876 ft | 479 kts | 328° |
| 2026-04-26 06:38 | -12.38430 | 130.87419 | 37878 ft | 478 kts | 315° |
| 2026-04-26 06:38 | -12.36196 | 130.84911 | 37878 ft | 477 kts | 308° |
| 2026-04-26 06:39 | -12.32014 | 130.79627 | 37875 ft | 477 kts | 309° |
| 2026-04-26 06:39 | -12.27674 | 130.74511 | 37875 ft | 475 kts | 311° |
| 2026-04-26 06:40 | -12.23191 | 130.69530 | 37875 ft | 475 kts | 312° |
| 2026-04-26 06:40 | -12.18706 | 130.64594 | 37875 ft | 475 kts | 312° |
| 2026-04-26 06:41 | -12.14974 | 130.60470 | 37876 ft | 476 kts | 312° |
| 2026-04-26 06:41 | -12.09710 | 130.54664 | 37876 ft | 476 kts | 312° |
| 2026-04-26 06:42 | -12.05235 | 130.49735 | 37876 ft | 476 kts | 312° |
| 2026-04-26 06:42 | -12.01459 | 130.45579 | 37876 ft | 476 kts | 312° |
| 2026-04-26 06:43 | -11.96986 | 130.40658 | 37876 ft | 476 kts | 313° |
| 2026-04-26 06:43 | -11.92481 | 130.35705 | 37876 ft | 476 kts | 313° |
| 2026-04-26 06:44 | -11.87973 | 130.30751 | 37876 ft | 476 kts | 313° |
| 2026-04-26 06:44 | -11.83461 | 130.25796 | 37877 ft | 476 kts | 313° |
| 2026-04-26 06:45 | -11.78948 | 130.20841 | 37876 ft | 475 kts | 313° |
| 2026-04-26 06:45 | -11.74466 | 130.15924 | 37876 ft | 475 kts | 313° |
| 2026-04-26 06:46 | -11.69969 | 130.10982 | 37876 ft | 475 kts | 313° |
| 2026-04-26 06:46 | -11.65460 | 130.06039 | 37876 ft | 476 kts | 313° |
| 2026-04-26 06:47 | -11.60939 | 130.01090 | 37876 ft | 476 kts | 313° |
| 2026-04-26 06:47 | -11.56420 | 129.96143 | 37876 ft | 476 kts | 313° |
| 2026-04-26 06:48 | -11.51889 | 129.91203 | 37876 ft | 476 kts | 314° |
| 2026-04-26 06:48 | -11.46998 | 129.86717 | 37876 ft | 476 kts | 321° |
| 2026-04-26 06:49 | -11.41749 | 129.82547 | 37875 ft | 476 kts | 322° |
| 2026-04-26 06:49 | -11.36559 | 129.78397 | 37875 ft | 476 kts | 321° |
| 2026-04-26 06:50 | -11.31374 | 129.74165 | 37875 ft | 477 kts | 321° |
| 2026-04-26 06:50 | -11.26202 | 129.69922 | 37874 ft | 477 kts | 321° |
| 2026-04-26 06:51 | -11.21033 | 129.65666 | 37875 ft | 477 kts | 321° |
| 2026-04-26 06:51 | -11.13313 | 129.59314 | 37875 ft | 477 kts | 321° |
| 2026-04-26 06:52 | -11.08146 | 129.55068 | 37875 ft | 477 kts | 321° |
| 2026-04-26 06:52 | -11.02979 | 129.50825 | 37875 ft | 477 kts | 321° |
| 2026-04-26 06:53 | -10.97797 | 129.46572 | 37875 ft | 478 kts | 321° |
| 2026-04-26 06:53 | -10.92615 | 129.42319 | 37875 ft | 478 kts | 321° |
| 2026-04-26 06:54 | -10.87466 | 129.38097 | 37874 ft | 478 kts | 321° |
| 2026-04-26 06:54 | -10.82284 | 129.33843 | 37874 ft | 478 kts | 321° |
| 2026-04-26 06:55 | -10.77098 | 129.29592 | 37873 ft | 479 kts | 322° |
| 2026-04-26 06:55 | -10.71900 | 129.25338 | 37873 ft | 479 kts | 322° |
| 2026-04-26 06:56 | -10.66743 | 129.21118 | 37873 ft | 479 kts | 322° |
| 2026-04-26 06:56 | -10.61546 | 129.16869 | 37873 ft | 479 kts | 322° |
| 2026-04-26 06:57 | -10.56462 | 129.12494 | 37873 ft | 479 kts | 318° |
| 2026-04-26 06:57 | -10.51623 | 129.07814 | 37872 ft | 480 kts | 317° |
| 2026-04-26 06:58 | -10.46790 | 129.03125 | 37872 ft | 480 kts | 317° |
| 2026-04-26 06:58 | -10.41924 | 128.98474 | 37872 ft | 480 kts | 317° |
| 2026-04-26 06:59 | -10.37048 | 128.93839 | 37871 ft | 480 kts | 317° |
| 2026-04-26 06:59 | -10.32171 | 128.89204 | 37871 ft | 480 kts | 317° |
| 2026-04-26 07:00 | -10.27287 | 128.84564 | 37871 ft | 480 kts | 317° |
| 2026-04-26 07:00 | -10.22429 | 128.79957 | 37870 ft | 480 kts | 317° |
| 2026-04-26 07:01 | -10.17543 | 128.75327 | 37856 ft | 481 kts | 318° |
| 2026-04-26 07:01 | -10.12641 | 128.70684 | 37852 ft | 481 kts | 318° |
| 2026-04-26 07:02 | -10.07774 | 128.66077 | 37851 ft | 481 kts | 317° |
| 2026-04-26 07:02 | -10.02874 | 128.61441 | 37851 ft | 481 kts | 318° |
| 2026-04-26 07:03 | -9.97966 | 128.56799 | 37850 ft | 481 kts | 318° |
| 2026-04-26 07:03 | -9.93086 | 128.52186 | 37849 ft | 482 kts | 318° |
| 2026-04-26 07:04 | -9.88180 | 128.47550 | 37848 ft | 482 kts | 318° |
| 2026-04-26 07:04 | -9.83274 | 128.42917 | 37848 ft | 482 kts | 318° |
| 2026-04-26 07:05 | -9.78364 | 128.38281 | 37847 ft | 482 kts | 318° |
| 2026-04-26 07:05 | -9.73487 | 128.33678 | 37846 ft | 482 kts | 318° |
| 2026-04-26 07:06 | -9.68579 | 128.29048 | 37845 ft | 482 kts | 318° |
| 2026-04-26 07:06 | -9.63666 | 128.24415 | 37845 ft | 482 kts | 318° |
| 2026-04-26 07:07 | -9.58754 | 128.19785 | 37844 ft | 482 kts | 318° |
| 2026-04-26 07:07 | -9.53835 | 128.15150 | 37843 ft | 482 kts | 318° |
| 2026-04-26 07:08 | -9.48950 | 128.10550 | 37843 ft | 482 kts | 318° |
| 2026-04-26 07:08 | -9.44040 | 128.05928 | 37842 ft | 482 kts | 318° |
| 2026-04-26 07:09 | -9.39121 | 128.01299 | 37842 ft | 482 kts | 318° |
| 2026-04-26 07:09 | -9.34225 | 127.96693 | 37841 ft | 483 kts | 318° |
| 2026-04-26 07:11 | -9.21908 | 127.85108 | 37839 ft | 485 kts | 318° |
| 2026-04-26 07:11 | -9.16957 | 127.80460 | 37838 ft | 485 kts | 318° |
| 2026-04-26 07:12 | -9.12007 | 127.75814 | 37838 ft | 485 kts | 319° |
| 2026-04-26 07:12 | -9.07088 | 127.71203 | 37837 ft | 485 kts | 319° |
| 2026-04-26 07:13 | -9.02082 | 127.66614 | 37837 ft | 485 kts | 319° |
| 2026-04-26 07:13 | -8.97083 | 127.62030 | 37836 ft | 485 kts | 319° |
| 2026-04-26 07:14 | -8.92070 | 127.57427 | 37836 ft | 486 kts | 319° |
| 2026-04-26 07:14 | -8.87059 | 127.52825 | 37835 ft | 486 kts | 319° |
| 2026-04-26 07:15 | -8.82112 | 127.48280 | 37835 ft | 486 kts | 319° |
| 2026-04-26 07:15 | -8.77062 | 127.43634 | 37834 ft | 487 kts | 319° |
| 2026-04-26 07:16 | -8.72050 | 127.39030 | 37834 ft | 487 kts | 319° |
| 2026-04-26 07:16 | -8.67034 | 127.34426 | 37834 ft | 487 kts | 319° |
| 2026-04-26 07:17 | -8.62006 | 127.29812 | 37833 ft | 487 kts | 319° |
| 2026-04-26 07:17 | -8.57011 | 127.25231 | 37825 ft | 488 kts | 319° |
| 2026-04-26 07:18 | -8.51976 | 127.20614 | 37823 ft | 488 kts | 319° |
| 2026-04-26 07:18 | -8.46936 | 127.15996 | 37822 ft | 489 kts | 320° |
| 2026-04-26 07:19 | -8.41898 | 127.11380 | 37822 ft | 489 kts | 320° |
| 2026-04-26 07:19 | -8.36881 | 127.06786 | 37821 ft | 490 kts | 319° |
| 2026-04-26 07:20 | -8.31815 | 127.02148 | 37820 ft | 490 kts | 320° |
| 2026-04-26 07:20 | -8.26781 | 126.97537 | 37819 ft | 491 kts | 319° |
| 2026-04-26 07:21 | -8.21713 | 126.92898 | 37819 ft | 492 kts | 320° |
| 2026-04-26 07:21 | -8.16635 | 126.88256 | 37819 ft | 492 kts | 320° |
| 2026-04-26 07:22 | -8.11547 | 126.83606 | 37819 ft | 493 kts | 320° |
| 2026-04-26 07:22 | -8.06476 | 126.78974 | 37818 ft | 494 kts | 320° |
| 2026-04-26 07:23 | -8.01366 | 126.74316 | 37818 ft | 495 kts | 320° |
| 2026-04-26 07:23 | -7.96225 | 126.69650 | 37817 ft | 496 kts | 320° |
| 2026-04-26 07:24 | -7.91103 | 126.65000 | 37817 ft | 500 kts | 320° |
| 2026-04-26 07:24 | -7.85895 | 126.60272 | 37855 ft | 502 kts | 320° |
| 2026-04-26 07:24 | -7.83334 | 126.57947 | 38115 ft | 501 kts | 320° |
| 2026-04-26 07:25 | -7.80753 | 126.55604 | 38489 ft | 497 kts | 320° |
| 2026-04-26 07:25 | -7.78189 | 126.53275 | 38778 ft | 495 kts | 320° |
| 2026-04-26 07:25 | -7.75635 | 126.50951 | 38998 ft | 495 kts | 320° |
| 2026-04-26 07:25 | -7.73076 | 126.48625 | 39183 ft | 495 kts | 320° |
| 2026-04-26 07:26 | -7.70523 | 126.46306 | 39416 ft | 494 kts | 320° |
| 2026-04-26 07:26 | -7.67964 | 126.43983 | 39665 ft | 492 kts | 320° |
| 2026-04-26 07:26 | -7.65421 | 126.41674 | 39803 ft | 492 kts | 320° |
| 2026-04-26 07:27 | -7.60324 | 126.37049 | 39815 ft | 492 kts | 320° |
| 2026-04-26 07:27 | -7.55240 | 126.32438 | 39815 ft | 491 kts | 320° |
| 2026-04-26 07:28 | -7.50184 | 126.27854 | 39815 ft | 491 kts | 320° |
| 2026-04-26 07:28 | -7.45093 | 126.23241 | 39815 ft | 491 kts | 320° |
| 2026-04-26 07:29 | -7.40866 | 126.19410 | 39814 ft | 491 kts | 320° |
| 2026-04-26 07:29 | -7.35781 | 126.14804 | 39814 ft | 491 kts | 320° |
| 2026-04-26 07:30 | -7.30691 | 126.10196 | 39814 ft | 492 kts | 320° |
| 2026-04-26 07:30 | -7.25592 | 126.05580 | 39814 ft | 492 kts | 320° |
| 2026-04-26 07:31 | -7.20495 | 126.00968 | 39813 ft | 492 kts | 320° |
| 2026-04-26 07:31 | -7.15421 | 125.96378 | 39814 ft | 493 kts | 320° |
| 2026-04-26 07:32 | -7.10310 | 125.91756 | 39814 ft | 494 kts | 320° |
| 2026-04-26 07:32 | -7.05180 | 125.87118 | 39815 ft | 495 kts | 320° |
| 2026-04-26 07:33 | -7.00053 | 125.82484 | 39806 ft | 494 kts | 320° |
| 2026-04-26 07:33 | -6.94972 | 125.77893 | 39812 ft | 493 kts | 320° |
| 2026-04-26 07:34 | -6.89846 | 125.73264 | 39812 ft | 495 kts | 320° |
| 2026-04-26 07:34 | -6.84711 | 125.68627 | 39811 ft | 496 kts | 320° |
| 2026-04-26 07:35 | -6.79601 | 125.64015 | 39811 ft | 496 kts | 320° |
| 2026-04-26 07:35 | -6.74468 | 125.59382 | 39812 ft | 496 kts | 320° |
| 2026-04-26 07:36 | -6.69325 | 125.54742 | 39811 ft | 496 kts | 320° |
| 2026-04-26 07:36 | -6.64194 | 125.50115 | 39811 ft | 495 kts | 320° |
| 2026-04-26 07:37 | -6.59084 | 125.45508 | 39811 ft | 495 kts | 320° |
| 2026-04-26 07:37 | -6.53936 | 125.40868 | 39810 ft | 496 kts | 320° |
| 2026-04-26 07:38 | -6.48834 | 125.36270 | 39811 ft | 496 kts | 320° |
| 2026-04-26 07:38 | -6.43686 | 125.31633 | 39810 ft | 496 kts | 320° |
| 2026-04-26 07:39 | -6.38544 | 125.27002 | 39810 ft | 496 kts | 320° |
| 2026-04-26 07:39 | -6.33398 | 125.22369 | 39810 ft | 496 kts | 320° |
| 2026-04-26 07:40 | -6.28287 | 125.17769 | 39810 ft | 496 kts | 320° |
| 2026-04-26 07:40 | -6.23130 | 125.13129 | 39810 ft | 496 kts | 320° |
| 2026-04-26 07:41 | -6.17987 | 125.08501 | 39810 ft | 496 kts | 320° |
| 2026-04-26 07:41 | -6.12833 | 125.03867 | 39809 ft | 496 kts | 320° |
| 2026-04-26 07:42 | -6.07696 | 124.99248 | 39810 ft | 495 kts | 320° |
| 2026-04-26 07:42 | -6.02588 | 124.94657 | 39810 ft | 495 kts | 320° |
| 2026-04-26 07:43 | -5.97445 | 124.90035 | 39810 ft | 495 kts | 320° |
| 2026-04-26 07:43 | -5.92297 | 124.85410 | 39810 ft | 497 kts | 320° |
| 2026-04-26 07:44 | -5.87141 | 124.80780 | 39810 ft | 497 kts | 320° |
| 2026-04-26 07:44 | -5.81972 | 124.76138 | 39809 ft | 497 kts | 320° |
| 2026-04-26 07:45 | -5.76854 | 124.71543 | 39809 ft | 497 kts | 320° |
| 2026-04-26 07:45 | -5.71698 | 124.66916 | 39810 ft | 496 kts | 320° |
| 2026-04-26 07:46 | -5.66540 | 124.62288 | 39810 ft | 496 kts | 320° |
| 2026-04-26 07:46 | -5.61390 | 124.57668 | 39810 ft | 496 kts | 320° |
| 2026-04-26 07:47 | -5.56236 | 124.53047 | 39809 ft | 497 kts | 320° |
| 2026-04-26 07:47 | -5.51101 | 124.48442 | 39805 ft | 497 kts | 320° |
| 2026-04-26 07:48 | -5.45941 | 124.43817 | 39806 ft | 497 kts | 320° |
| 2026-04-26 07:48 | -5.40775 | 124.39188 | 39806 ft | 496 kts | 320° |
| 2026-04-26 07:49 | -5.35653 | 124.34598 | 39806 ft | 496 kts | 320° |
| 2026-04-26 07:49 | -5.30495 | 124.29978 | 39806 ft | 497 kts | 320° |
| 2026-04-26 07:50 | -5.22754 | 124.23045 | 39806 ft | 497 kts | 320° |
| 2026-04-26 07:50 | -5.17589 | 124.18417 | 39806 ft | 497 kts | 320° |
| 2026-04-26 07:51 | -5.12454 | 124.13822 | 39806 ft | 497 kts | 320° |
| 2026-04-26 07:51 | -5.07286 | 124.09198 | 39806 ft | 497 kts | 320° |
| 2026-04-26 07:52 | -5.02112 | 124.04570 | 39789 ft | 498 kts | 320° |
| 2026-04-26 07:52 | -4.96938 | 123.99940 | 39789 ft | 498 kts | 320° |
| 2026-04-26 07:53 | -4.91784 | 123.95282 | 39790 ft | 498 kts | 319° |
| 2026-04-26 07:53 | -4.86639 | 123.90633 | 39790 ft | 497 kts | 319° |
| 2026-04-26 07:54 | -4.81533 | 123.86020 | 39790 ft | 497 kts | 319° |
| 2026-04-26 07:54 | -4.76395 | 123.81379 | 39790 ft | 497 kts | 319° |
| 2026-04-26 07:55 | -4.71249 | 123.76731 | 39790 ft | 497 kts | 319° |
| 2026-04-26 07:55 | -4.66105 | 123.72079 | 39791 ft | 498 kts | 319° |
| 2026-04-26 07:56 | -4.60947 | 123.67419 | 39791 ft | 499 kts | 319° |
| 2026-04-26 07:56 | -4.55784 | 123.62757 | 39797 ft | 499 kts | 319° |
| 2026-04-26 07:57 | -4.50651 | 123.58122 | 39798 ft | 499 kts | 319° |
| 2026-04-26 07:57 | -4.45486 | 123.53460 | 39798 ft | 499 kts | 319° |
| 2026-04-26 07:58 | -4.40327 | 123.48805 | 39797 ft | 499 kts | 319° |
| 2026-04-26 07:58 | -4.35168 | 123.44151 | 39798 ft | 499 kts | 319° |
| 2026-04-26 07:59 | -4.30014 | 123.39501 | 39798 ft | 498 kts | 319° |
| 2026-04-26 07:59 | -4.24882 | 123.34873 | 39798 ft | 498 kts | 319° |
| 2026-04-26 08:00 | -4.19728 | 123.30225 | 39798 ft | 498 kts | 319° |
| 2026-04-26 08:00 | -4.14580 | 123.25584 | 39799 ft | 498 kts | 319° |
| 2026-04-26 08:01 | -4.09420 | 123.20933 | 39799 ft | 498 kts | 319° |
| 2026-04-26 08:01 | -4.04272 | 123.16293 | 39798 ft | 498 kts | 319° |
| 2026-04-26 08:02 | -3.99115 | 123.11647 | 39798 ft | 498 kts | 319° |
| 2026-04-26 08:02 | -3.93963 | 123.07006 | 39798 ft | 498 kts | 319° |
| 2026-04-26 08:03 | -3.88830 | 123.02382 | 39798 ft | 497 kts | 319° |
| 2026-04-26 08:03 | -3.83683 | 122.97747 | 39799 ft | 497 kts | 319° |
| 2026-04-26 08:04 | -3.78543 | 122.93118 | 39799 ft | 497 kts | 319° |
| 2026-04-26 08:04 | -3.73393 | 122.88482 | 39799 ft | 497 kts | 319° |
| 2026-04-26 08:05 | -3.68284 | 122.83884 | 39800 ft | 496 kts | 319° |
| 2026-04-26 08:05 | -3.63134 | 122.79248 | 39801 ft | 496 kts | 319° |
| 2026-04-26 08:06 | -3.57991 | 122.74620 | 39802 ft | 496 kts | 319° |
| 2026-04-26 08:06 | -3.52885 | 122.70026 | 39802 ft | 496 kts | 319° |
| 2026-04-26 08:07 | -3.47745 | 122.65402 | 39802 ft | 496 kts | 319° |
| 2026-04-26 08:07 | -3.42601 | 122.60776 | 39802 ft | 496 kts | 319° |
| 2026-04-26 08:08 | -3.37465 | 122.56158 | 39802 ft | 496 kts | 319° |
| 2026-04-26 08:08 | -3.32356 | 122.51564 | 39803 ft | 496 kts | 319° |
| 2026-04-26 08:09 | -3.27222 | 122.46948 | 39803 ft | 495 kts | 319° |
| 2026-04-26 08:09 | -3.22096 | 122.42340 | 39802 ft | 495 kts | 319° |
| 2026-04-26 08:10 | -3.16974 | 122.37736 | 39803 ft | 495 kts | 319° |
| 2026-04-26 08:10 | -3.11872 | 122.33152 | 39803 ft | 494 kts | 319° |
| 2026-04-26 08:11 | -3.06755 | 122.28554 | 39803 ft | 494 kts | 319° |
| 2026-04-26 08:11 | -3.01631 | 122.23951 | 39803 ft | 494 kts | 318° |
| 2026-04-26 08:12 | -2.96507 | 122.19347 | 39803 ft | 494 kts | 318° |
| 2026-04-26 08:12 | -2.91386 | 122.14748 | 39803 ft | 493 kts | 318° |
| 2026-04-26 08:13 | -2.86312 | 122.10191 | 39803 ft | 493 kts | 318° |
| 2026-04-26 08:13 | -2.81215 | 122.05615 | 39803 ft | 492 kts | 318° |
| 2026-04-26 08:14 | -2.76117 | 122.01037 | 39803 ft | 492 kts | 318° |
| 2026-04-26 08:14 | -2.71855 | 121.97211 | 39803 ft | 492 kts | 318° |
| 2026-04-26 08:15 | -2.66783 | 121.92659 | 39803 ft | 491 kts | 318° |
| 2026-04-26 08:15 | -2.61709 | 121.88105 | 39803 ft | 490 kts | 318° |
| 2026-04-26 08:16 | -2.55809 | 121.82809 | 39803 ft | 490 kts | 318° |
| 2026-04-26 08:16 | -2.51582 | 121.79017 | 39803 ft | 490 kts | 318° |
| 2026-04-26 08:17 | -2.46492 | 121.74449 | 39805 ft | 490 kts | 318° |
| 2026-04-26 08:17 | -2.41411 | 121.69892 | 39806 ft | 490 kts | 318° |
| 2026-04-26 08:18 | -2.36361 | 121.65361 | 39806 ft | 489 kts | 318° |
| 2026-04-26 08:18 | -2.31294 | 121.60816 | 39806 ft | 489 kts | 318° |
| 2026-04-26 08:19 | -2.26211 | 121.56258 | 39806 ft | 489 kts | 318° |
| 2026-04-26 08:19 | -2.21170 | 121.51737 | 39805 ft | 489 kts | 318° |
| 2026-04-26 08:20 | -2.16099 | 121.47190 | 39805 ft | 490 kts | 318° |
| 2026-04-26 08:20 | -2.11025 | 121.42640 | 39805 ft | 490 kts | 318° |
| 2026-04-26 08:21 | -2.05943 | 121.38084 | 39804 ft | 490 kts | 318° |
| 2026-04-26 08:21 | -2.00871 | 121.33538 | 39804 ft | 490 kts | 318° |
| 2026-04-26 08:22 | -1.95803 | 121.28995 | 39804 ft | 490 kts | 318° |
| 2026-04-26 08:22 | -1.90764 | 121.24478 | 39804 ft | 490 kts | 318° |
| 2026-04-26 08:23 | -1.85681 | 121.19923 | 39804 ft | 490 kts | 318° |
| 2026-04-26 08:23 | -1.80612 | 121.15380 | 39803 ft | 490 kts | 318° |
| 2026-04-26 08:24 | -1.75542 | 121.10837 | 39803 ft | 490 kts | 318° |
| 2026-04-26 08:24 | -1.70457 | 121.06281 | 39803 ft | 490 kts | 318° |
| 2026-04-26 08:25 | -1.65407 | 121.01757 | 39802 ft | 490 kts | 318° |
| 2026-04-26 08:25 | -1.60331 | 120.97209 | 39802 ft | 490 kts | 318° |
| 2026-04-26 08:26 | -1.55241 | 120.92650 | 39801 ft | 490 kts | 318° |
| 2026-04-26 08:26 | -1.50197 | 120.88131 | 39801 ft | 490 kts | 318° |
| 2026-04-26 08:27 | -1.45146 | 120.83607 | 39800 ft | 490 kts | 318° |
| 2026-04-26 08:27 | -1.40045 | 120.79038 | 39800 ft | 490 kts | 318° |
| 2026-04-26 08:28 | -1.34965 | 120.74489 | 39800 ft | 490 kts | 318° |
| 2026-04-26 08:28 | -1.29914 | 120.69966 | 39799 ft | 490 kts | 318° |
| 2026-04-26 08:29 | -1.24808 | 120.65393 | 39792 ft | 491 kts | 318° |
| 2026-04-26 08:29 | -1.19746 | 120.60861 | 39788 ft | 491 kts | 318° |
| 2026-04-26 08:30 | -1.14664 | 120.56309 | 39788 ft | 491 kts | 318° |
| 2026-04-26 08:30 | -1.09563 | 120.51742 | 39787 ft | 491 kts | 318° |
| 2026-04-26 08:31 | -1.04475 | 120.47187 | 39788 ft | 491 kts | 318° |
| 2026-04-26 08:31 | -0.99390 | 120.42635 | 39787 ft | 491 kts | 318° |
| 2026-04-26 08:32 | -0.94328 | 120.38103 | 39786 ft | 491 kts | 318° |
| 2026-04-26 08:32 | -0.89237 | 120.33546 | 39786 ft | 492 kts | 318° |
| 2026-04-26 08:33 | -0.84139 | 120.28982 | 39786 ft | 492 kts | 318° |
| 2026-04-26 08:33 | -0.79029 | 120.24408 | 39785 ft | 492 kts | 318° |
| 2026-04-26 08:34 | -0.73926 | 120.19840 | 39785 ft | 492 kts | 318° |
| 2026-04-26 08:34 | -0.68829 | 120.15278 | 39785 ft | 492 kts | 318° |
| 2026-04-26 08:35 | -0.63761 | 120.10742 | 39784 ft | 492 kts | 318° |
| 2026-04-26 08:35 | -0.58655 | 120.06172 | 39784 ft | 492 kts | 318° |
| 2026-04-26 08:36 | -0.53551 | 120.01604 | 39784 ft | 492 kts | 318° |
| 2026-04-26 08:36 | -0.48484 | 119.97069 | 39783 ft | 492 kts | 318° |
| 2026-04-26 08:37 | -0.43385 | 119.92505 | 39783 ft | 492 kts | 318° |
| 2026-04-26 08:37 | -0.38128 | 119.87800 | 39783 ft | 493 kts | 318° |
| 2026-04-26 08:38 | -0.33019 | 119.83228 | 39782 ft | 493 kts | 318° |
| 2026-04-26 08:38 | -0.27939 | 119.78682 | 39782 ft | 493 kts | 318° |
| 2026-04-26 08:39 | -0.22829 | 119.74108 | 39782 ft | 493 kts | 318° |
| 2026-04-26 08:39 | -0.17718 | 119.69534 | 39781 ft | 493 kts | 318° |
| 2026-04-26 08:40 | -0.12601 | 119.64955 | 39781 ft | 493 kts | 318° |
| 2026-04-26 08:40 | -0.07493 | 119.60383 | 39781 ft | 493 kts | 318° |
| 2026-04-26 08:41 | -0.02404 | 119.55828 | 39781 ft | 493 kts | 318° |
| 2026-04-26 08:41 | 0.02712 | 119.51249 | 39784 ft | 493 kts | 318° |
| 2026-04-26 08:42 | 0.07748 | 119.46659 | 39785 ft | 493 kts | 317° |
| 2026-04-26 08:42 | 0.12807 | 119.42018 | 39785 ft | 494 kts | 317° |
| 2026-04-26 08:43 | 0.17881 | 119.37367 | 39785 ft | 494 kts | 317° |
| 2026-04-26 08:43 | 0.22951 | 119.32722 | 39784 ft | 494 kts | 317° |
| 2026-04-26 08:44 | 0.28019 | 119.28079 | 39784 ft | 494 kts | 317° |
| 2026-04-26 08:44 | 0.33059 | 119.23463 | 39784 ft | 494 kts | 317° |
| 2026-04-26 08:45 | 0.38122 | 119.18825 | 39784 ft | 494 kts | 317° |
| 2026-04-26 08:45 | 0.43202 | 119.14172 | 39784 ft | 495 kts | 317° |
| 2026-04-26 08:46 | 0.48281 | 119.09519 | 39783 ft | 495 kts | 317° |
| 2026-04-26 08:46 | 0.53330 | 119.04894 | 39782 ft | 495 kts | 317° |
| 2026-04-26 08:47 | 0.58407 | 119.00243 | 39783 ft | 495 kts | 317° |
| 2026-04-26 08:47 | 0.63497 | 118.95581 | 39783 ft | 495 kts | 317° |
| 2026-04-26 08:48 | 0.68537 | 118.90963 | 39783 ft | 495 kts | 317° |
| 2026-04-26 08:48 | 0.73612 | 118.86313 | 39783 ft | 495 kts | 317° |
| 2026-04-26 08:49 | 0.78690 | 118.81661 | 39783 ft | 494 kts | 317° |
| 2026-04-26 08:49 | 0.83769 | 118.77007 | 39783 ft | 494 kts | 317° |
| 2026-04-26 08:50 | 0.88839 | 118.72363 | 39783 ft | 494 kts | 317° |
| 2026-04-26 08:50 | 0.93883 | 118.67741 | 39783 ft | 495 kts | 317° |
| 2026-04-26 08:51 | 1.01499 | 118.60762 | 39783 ft | 495 kts | 317° |
| 2026-04-26 08:52 | 1.06575 | 118.56110 | 39783 ft | 495 kts | 317° |
| 2026-04-26 08:52 | 1.11648 | 118.51461 | 39783 ft | 495 kts | 317° |
| 2026-04-26 08:53 | 1.16691 | 118.46840 | 39783 ft | 494 kts | 317° |
| 2026-04-26 08:53 | 1.21771 | 118.42184 | 39783 ft | 494 kts | 317° |
| 2026-04-26 08:54 | 1.25989 | 118.38318 | 39784 ft | 495 kts | 317° |
| 2026-04-26 08:54 | 1.31918 | 118.32883 | 39784 ft | 494 kts | 317° |
| 2026-04-26 08:55 | 1.36992 | 118.28232 | 39784 ft | 494 kts | 317° |
| 2026-04-26 08:55 | 1.41207 | 118.24368 | 39784 ft | 494 kts | 317° |
| 2026-04-26 08:56 | 1.46276 | 118.19721 | 39783 ft | 494 kts | 317° |
| 2026-04-26 08:56 | 1.51325 | 118.15092 | 39783 ft | 494 kts | 317° |
| 2026-04-26 08:57 | 1.56394 | 118.10444 | 39783 ft | 493 kts | 318° |
| 2026-04-26 08:57 | 1.61454 | 118.05805 | 39783 ft | 493 kts | 318° |
| 2026-04-26 08:58 | 1.66518 | 118.01161 | 39783 ft | 493 kts | 318° |
| 2026-04-26 08:58 | 1.71551 | 117.96545 | 39784 ft | 493 kts | 318° |
| 2026-04-26 08:59 | 1.76608 | 117.91907 | 39784 ft | 493 kts | 318° |
| 2026-04-26 08:59 | 1.81679 | 117.87255 | 39785 ft | 494 kts | 318° |
| 2026-04-26 09:00 | 1.86741 | 117.82613 | 39791 ft | 493 kts | 318° |
| 2026-04-26 09:00 | 1.91797 | 117.77974 | 39792 ft | 493 kts | 318° |
| 2026-04-26 09:01 | 1.96863 | 117.73326 | 39792 ft | 494 kts | 318° |
| 2026-04-26 09:01 | 2.01897 | 117.68707 | 39792 ft | 493 kts | 317° |
| 2026-04-26 09:02 | 2.06954 | 117.64067 | 39792 ft | 493 kts | 317° |
| 2026-04-26 09:02 | 2.12008 | 117.59429 | 39792 ft | 492 kts | 317° |
| 2026-04-26 09:03 | 2.17020 | 117.54829 | 39787 ft | 492 kts | 317° |
| 2026-04-26 09:03 | 2.22063 | 117.50200 | 39786 ft | 491 kts | 317° |
| 2026-04-26 09:04 | 2.27103 | 117.45574 | 39786 ft | 491 kts | 317° |
| 2026-04-26 09:04 | 2.32141 | 117.40948 | 39786 ft | 491 kts | 317° |
| 2026-04-26 09:05 | 2.37146 | 117.36353 | 39787 ft | 491 kts | 317° |
| 2026-04-26 09:05 | 2.42177 | 117.31733 | 39787 ft | 490 kts | 317° |
| 2026-04-26 09:06 | 2.47202 | 117.27120 | 39787 ft | 489 kts | 317° |
| 2026-04-26 09:06 | 2.52207 | 117.22522 | 39787 ft | 489 kts | 317° |
| 2026-04-26 09:07 | 2.55523 | 117.19477 | 39787 ft | 488 kts | 317° |